sensor_id;sensor_type;location;lat;lon;timestamp;P1;durP1;ratioP1;P2;durP2;ratioP2
16466;SDS011;8344;47.560;9.710;2022-08-14T00:02:04;0.50;;;0.50;;
16466;SDS011;8344;47.560;9.710;2022-08-14T00:04:30;0.43;;;0.43;;
16466;SDS011;8344;47.560;9.710;2022-08-14T00:06:55;0.40;;;0.40;;
16466;SDS011;8344;47.560;9.710;2022-08-14T00:09:21;0.50;;;0.50;;
16466;SDS011;8344;47.560;9.710;2022-08-14T00:11:46;0.38;;;0.38;;
16466;SDS011;8344;47.560;9.710;2022-08-14T00:14:11;0.30;;;0.30;;
16466;SDS011;8344;47.560;9.710;2022-08-14T00:16:37;0.40;;;0.40;;
16466;SDS011;8344;47.560;9.710;2022-08-14T00:19:02;0.40;;;0.40;;
16466;SDS011;8344;47.560;9.710;2022-08-14T00:21:27;0.50;;;0.50;;
16466;SDS011;8344;47.560;9.710;2022-08-14T00:23:53;0.50;;;0.50;;
16466;SDS011;8344;47.560;9.710;2022-08-14T00:26:20;0.50;;;0.50;;
16466;SDS011;8344;47.560;9.710;2022-08-14T00:28:45;0.50;;;0.50;;
16466;SDS011;8344;47.560;9.710;2022-08-14T00:31:11;0.50;;;0.50;;
16466;SDS011;8344;47.560;9.710;2022-08-14T00:33:36;0.35;;;0.35;;
16466;SDS011;8344;47.560;9.710;2022-08-14T00:36:02;0.50;;;0.50;;
16466;SDS011;8344;47.560;9.710;2022-08-14T00:38:27;0.40;;;0.40;;
16466;SDS011;8344;47.560;9.710;2022-08-14T00:40:53;0.45;;;0.45;;
16466;SDS011;8344;47.560;9.710;2022-08-14T00:43:18;0.38;;;0.38;;
16466;SDS011;8344;47.560;9.710;2022-08-14T00:45:43;0.50;;;0.50;;
16466;SDS011;8344;47.560;9.710;2022-08-14T00:48:08;0.43;;;0.43;;
16466;SDS011;8344;47.560;9.710;2022-08-14T00:50:34;0.40;;;0.40;;
16466;SDS011;8344;47.560;9.710;2022-08-14T00:52:59;0.40;;;0.40;;
16466;SDS011;8344;47.560;9.710;2022-08-14T00:55:25;0.40;;;0.40;;
16466;SDS011;8344;47.560;9.710;2022-08-14T00:57:52;0.40;;;0.40;;
16466;SDS011;8344;47.560;9.710;2022-08-14T01:00:36;0.47;;;0.47;;
16466;SDS011;8344;47.560;9.710;2022-08-14T01:03:02;0.60;;;0.60;;
16466;SDS011;8344;47.560;9.710;2022-08-14T01:05:27;0.60;;;0.60;;
16466;SDS011;8344;47.560;9.710;2022-08-14T01:07:53;0.40;;;0.40;;
16466;SDS011;8344;47.560;9.710;2022-08-14T01:10:21;0.50;;;0.50;;
16466;SDS011;8344;47.560;9.710;2022-08-14T01:12:48;0.40;;;0.40;;
16466;SDS011;8344;47.560;9.710;2022-08-14T01:15:14;0.60;;;0.60;;
16466;SDS011;8344;47.560;9.710;2022-08-14T01:17:40;0.50;;;0.50;;
16466;SDS011;8344;47.560;9.710;2022-08-14T01:20:29;0.40;;;0.40;;
16466;SDS011;8344;47.560;9.710;2022-08-14T01:23:14;0.60;;;0.60;;
16466;SDS011;8344;47.560;9.710;2022-08-14T01:25:39;0.30;;;0.30;;
16466;SDS011;8344;47.560;9.710;2022-08-14T01:28:05;0.32;;;0.32;;
16466;SDS011;8344;47.560;9.710;2022-08-14T01:30:31;0.50;;;0.50;;
16466;SDS011;8344;47.560;9.710;2022-08-14T01:33:02;0.40;;;0.40;;
16466;SDS011;8344;47.560;9.710;2022-08-14T01:35:27;0.50;;;0.50;;
16466;SDS011;8344;47.560;9.710;2022-08-14T01:37:53;0.50;;;0.50;;
16466;SDS011;8344;47.560;9.710;2022-08-14T01:40:21;0.50;;;0.50;;
16466;SDS011;8344;47.560;9.710;2022-08-14T01:42:47;0.50;;;0.50;;
16466;SDS011;8344;47.560;9.710;2022-08-14T01:45:13;0.38;;;0.38;;
16466;SDS011;8344;47.560;9.710;2022-08-14T01:47:38;0.50;;;0.50;;
16466;SDS011;8344;47.560;9.710;2022-08-14T01:50:05;0.50;;;0.50;;
16466;SDS011;8344;47.560;9.710;2022-08-14T01:52:31;0.50;;;0.50;;
16466;SDS011;8344;47.560;9.710;2022-08-14T01:54:56;0.47;;;0.47;;
16466;SDS011;8344;47.560;9.710;2022-08-14T01:57:22;0.45;;;0.45;;
16466;SDS011;8344;47.560;9.710;2022-08-14T01:59:48;0.50;;;0.50;;
16466;SDS011;8344;47.560;9.710;2022-08-14T02:02:14;0.40;;;0.40;;
16466;SDS011;8344;47.560;9.710;2022-08-14T02:04:39;0.50;;;0.50;;
16466;SDS011;8344;47.560;9.710;2022-08-14T02:07:05;0.30;;;0.30;;
16466;SDS011;8344;47.560;9.710;2022-08-14T02:09:31;0.45;;;0.45;;
16466;SDS011;8344;47.560;9.710;2022-08-14T02:11:59;0.50;;;0.50;;
16466;SDS011;8344;47.560;9.710;2022-08-14T02:14:24;0.60;;;0.60;;
16466;SDS011;8344;47.560;9.710;2022-08-14T02:16:49;0.50;;;0.50;;
16466;SDS011;8344;47.560;9.710;2022-08-14T02:19:18;0.40;;;0.40;;
16466;SDS011;8344;47.560;9.710;2022-08-14T02:21:45;0.50;;;0.50;;
16466;SDS011;8344;47.560;9.710;2022-08-14T02:24:12;0.45;;;0.45;;
16466;SDS011;8344;47.560;9.710;2022-08-14T02:26:38;0.40;;;0.40;;
16466;SDS011;8344;47.560;9.710;2022-08-14T02:31:30;0.50;;;0.50;;
16466;SDS011;8344;47.560;9.710;2022-08-14T02:34:01;0.50;;;0.50;;
16466;SDS011;8344;47.560;9.710;2022-08-14T02:36:27;0.50;;;0.50;;
16466;SDS011;8344;47.560;9.710;2022-08-14T02:38:52;0.50;;;0.50;;
16466;SDS011;8344;47.560;9.710;2022-08-14T02:41:17;0.60;;;0.60;;
16466;SDS011;8344;47.560;9.710;2022-08-14T02:43:42;0.40;;;0.40;;
16466;SDS011;8344;47.560;9.710;2022-08-14T02:46:08;0.47;;;0.47;;
16466;SDS011;8344;47.560;9.710;2022-08-14T02:48:38;0.40;;;0.40;;
16466;SDS011;8344;47.560;9.710;2022-08-14T02:51:08;0.50;;;0.50;;
16466;SDS011;8344;47.560;9.710;2022-08-14T02:53:34;0.45;;;0.45;;
16466;SDS011;8344;47.560;9.710;2022-08-14T02:56:00;0.40;;;0.40;;
16466;SDS011;8344;47.560;9.710;2022-08-14T02:58:25;0.50;;;0.50;;
16466;SDS011;8344;47.560;9.710;2022-08-14T03:00:50;0.50;;;0.50;;
16466;SDS011;8344;47.560;9.710;2022-08-14T03:03:16;0.40;;;0.40;;
16466;SDS011;8344;47.560;9.710;2022-08-14T03:05:41;0.57;;;0.57;;
16466;SDS011;8344;47.560;9.710;2022-08-14T03:08:07;0.50;;;0.50;;
16466;SDS011;8344;47.560;9.710;2022-08-14T03:10:33;0.40;;;0.40;;
16466;SDS011;8344;47.560;9.710;2022-08-14T03:12:58;0.43;;;0.43;;
16466;SDS011;8344;47.560;9.710;2022-08-14T03:15:24;0.50;;;0.50;;
16466;SDS011;8344;47.560;9.710;2022-08-14T03:17:49;0.50;;;0.50;;
16466;SDS011;8344;47.560;9.710;2022-08-14T03:20:17;0.40;;;0.40;;
16466;SDS011;8344;47.560;9.710;2022-08-14T03:22:42;0.52;;;0.52;;
16466;SDS011;8344;47.560;9.710;2022-08-14T03:25:07;0.47;;;0.47;;
16466;SDS011;8344;47.560;9.710;2022-08-14T03:27:32;0.50;;;0.50;;
16466;SDS011;8344;47.560;9.710;2022-08-14T03:29:57;0.50;;;0.50;;
16466;SDS011;8344;47.560;9.710;2022-08-14T03:32:23;0.50;;;0.50;;
16466;SDS011;8344;47.560;9.710;2022-08-14T03:34:48;0.43;;;0.43;;
16466;SDS011;8344;47.560;9.710;2022-08-14T03:37:14;0.55;;;0.55;;
16466;SDS011;8344;47.560;9.710;2022-08-14T03:39:39;0.50;;;0.50;;
16466;SDS011;8344;47.560;9.710;2022-08-14T03:42:04;0.60;;;0.60;;
16466;SDS011;8344;47.560;9.710;2022-08-14T03:44:29;0.40;;;0.40;;
16466;SDS011;8344;47.560;9.710;2022-08-14T03:46:59;0.50;;;0.50;;
16466;SDS011;8344;47.560;9.710;2022-08-14T03:49:24;0.50;;;0.50;;
16466;SDS011;8344;47.560;9.710;2022-08-14T03:51:49;0.57;;;0.57;;
16466;SDS011;8344;47.560;9.710;2022-08-14T03:54:15;0.50;;;0.50;;
16466;SDS011;8344;47.560;9.710;2022-08-14T03:56:40;0.50;;;0.50;;
16466;SDS011;8344;47.560;9.710;2022-08-14T03:59:08;0.50;;;0.50;;
16466;SDS011;8344;47.560;9.710;2022-08-14T04:01:36;0.50;;;0.50;;
16466;SDS011;8344;47.560;9.710;2022-08-14T04:04:01;0.50;;;0.50;;
16466;SDS011;8344;47.560;9.710;2022-08-14T04:06:30;0.50;;;0.50;;
16466;SDS011;8344;47.560;9.710;2022-08-14T04:08:55;0.50;;;0.50;;
16466;SDS011;8344;47.560;9.710;2022-08-14T04:11:21;0.40;;;0.40;;
16466;SDS011;8344;47.560;9.710;2022-08-14T04:13:46;0.50;;;0.50;;
16466;SDS011;8344;47.560;9.710;2022-08-14T04:16:14;0.40;;;0.40;;
16466;SDS011;8344;47.560;9.710;2022-08-14T04:18:40;0.40;;;0.40;;
16466;SDS011;8344;47.560;9.710;2022-08-14T04:21:06;0.55;;;0.55;;
16466;SDS011;8344;47.560;9.710;2022-08-14T04:23:32;0.50;;;0.50;;
16466;SDS011;8344;47.560;9.710;2022-08-14T04:25:57;0.60;;;0.60;;
16466;SDS011;8344;47.560;9.710;2022-08-14T04:28:22;0.65;;;0.65;;
16466;SDS011;8344;47.560;9.710;2022-08-14T04:30:48;0.47;;;0.47;;
16466;SDS011;8344;47.560;9.710;2022-08-14T04:33:14;0.40;;;0.40;;
16466;SDS011;8344;47.560;9.710;2022-08-14T04:35:40;0.50;;;0.50;;
16466;SDS011;8344;47.560;9.710;2022-08-14T04:38:06;0.50;;;0.50;;
16466;SDS011;8344;47.560;9.710;2022-08-14T04:40:50;0.40;;;0.40;;
16466;SDS011;8344;47.560;9.710;2022-08-14T04:43:34;0.40;;;0.40;;
16466;SDS011;8344;47.560;9.710;2022-08-14T04:45:59;0.50;;;0.50;;
16466;SDS011;8344;47.560;9.710;2022-08-14T04:48:25;0.40;;;0.40;;
16466;SDS011;8344;47.560;9.710;2022-08-14T04:50:51;0.47;;;0.47;;
16466;SDS011;8344;47.560;9.710;2022-08-14T04:53:20;0.60;;;0.60;;
16466;SDS011;8344;47.560;9.710;2022-08-14T04:55:47;0.50;;;0.50;;
16466;SDS011;8344;47.560;9.710;2022-08-14T04:58:16;0.30;;;0.30;;
16466;SDS011;8344;47.560;9.710;2022-08-14T05:00:44;0.40;;;0.40;;
16466;SDS011;8344;47.560;9.710;2022-08-14T05:03:10;0.40;;;0.40;;
16466;SDS011;8344;47.560;9.710;2022-08-14T05:05:36;0.40;;;0.40;;
16466;SDS011;8344;47.560;9.710;2022-08-14T05:08:07;0.52;;;0.52;;
16466;SDS011;8344;47.560;9.710;2022-08-14T05:10:36;0.50;;;0.50;;
16466;SDS011;8344;47.560;9.710;2022-08-14T05:13:01;0.40;;;0.40;;
16466;SDS011;8344;47.560;9.710;2022-08-14T05:15:29;0.43;;;0.43;;
16466;SDS011;8344;47.560;9.710;2022-08-14T05:17:54;0.40;;;0.40;;
16466;SDS011;8344;47.560;9.710;2022-08-14T05:20:20;0.40;;;0.40;;
16466;SDS011;8344;47.560;9.710;2022-08-14T05:22:45;0.50;;;0.50;;
16466;SDS011;8344;47.560;9.710;2022-08-14T05:25:10;0.47;;;0.47;;
16466;SDS011;8344;47.560;9.710;2022-08-14T05:27:36;0.40;;;0.40;;
16466;SDS011;8344;47.560;9.710;2022-08-14T05:30:03;0.50;;;0.50;;
16466;SDS011;8344;47.560;9.710;2022-08-14T05:32:28;0.50;;;0.50;;
16466;SDS011;8344;47.560;9.710;2022-08-14T05:34:54;0.50;;;0.50;;
16466;SDS011;8344;47.560;9.710;2022-08-14T05:37:21;0.43;;;0.43;;
16466;SDS011;8344;47.560;9.710;2022-08-14T05:39:46;0.40;;;0.40;;
16466;SDS011;8344;47.560;9.710;2022-08-14T05:42:11;0.43;;;0.43;;
16466;SDS011;8344;47.560;9.710;2022-08-14T05:44:37;0.50;;;0.50;;
16466;SDS011;8344;47.560;9.710;2022-08-14T05:47:02;0.30;;;0.30;;
16466;SDS011;8344;47.560;9.710;2022-08-14T05:49:28;0.50;;;0.50;;
16466;SDS011;8344;47.560;9.710;2022-08-14T05:51:53;0.30;;;0.30;;
16466;SDS011;8344;47.560;9.710;2022-08-14T05:54:18;0.40;;;0.40;;
16466;SDS011;8344;47.560;9.710;2022-08-14T05:56:43;0.50;;;0.50;;
16466;SDS011;8344;47.560;9.710;2022-08-14T05:59:10;0.40;;;0.40;;
16466;SDS011;8344;47.560;9.710;2022-08-14T06:01:36;0.40;;;0.40;;
16466;SDS011;8344;47.560;9.710;2022-08-14T06:04:01;0.47;;;0.47;;
16466;SDS011;8344;47.560;9.710;2022-08-14T06:06:26;0.40;;;0.40;;
16466;SDS011;8344;47.560;9.710;2022-08-14T06:08:51;0.60;;;0.60;;
16466;SDS011;8344;47.560;9.710;2022-08-14T06:11:17;0.50;;;0.50;;
16466;SDS011;8344;47.560;9.710;2022-08-14T06:13:42;0.50;;;0.50;;
16466;SDS011;8344;47.560;9.710;2022-08-14T06:16:08;0.30;;;0.30;;
16466;SDS011;8344;47.560;9.710;2022-08-14T06:18:33;0.50;;;0.50;;
16466;SDS011;8344;47.560;9.710;2022-08-14T06:20:59;0.40;;;0.40;;
16466;SDS011;8344;47.560;9.710;2022-08-14T06:23:24;0.40;;;0.40;;
16466;SDS011;8344;47.560;9.710;2022-08-14T06:25:49;0.40;;;0.40;;
16466;SDS011;8344;47.560;9.710;2022-08-14T06:28:18;0.40;;;0.40;;
16466;SDS011;8344;47.560;9.710;2022-08-14T06:30:44;0.40;;;0.40;;
16466;SDS011;8344;47.560;9.710;2022-08-14T06:33:09;0.30;;;0.30;;
16466;SDS011;8344;47.560;9.710;2022-08-14T06:35:34;0.40;;;0.40;;
16466;SDS011;8344;47.560;9.710;2022-08-14T06:37:59;0.30;;;0.30;;
16466;SDS011;8344;47.560;9.710;2022-08-14T06:40:29;0.20;;;0.20;;
16466;SDS011;8344;47.560;9.710;2022-08-14T06:42:55;0.20;;;0.20;;
16466;SDS011;8344;47.560;9.710;2022-08-14T06:45:20;0.20;;;0.20;;
16466;SDS011;8344;47.560;9.710;2022-08-14T06:47:46;0.20;;;0.20;;
16466;SDS011;8344;47.560;9.710;2022-08-14T06:50:13;0.10;;;0.10;;
16466;SDS011;8344;47.560;9.710;2022-08-14T06:52:39;0.10;;;0.10;;
16466;SDS011;8344;47.560;9.710;2022-08-14T06:55:05;0.10;;;0.10;;
16466;SDS011;8344;47.560;9.710;2022-08-14T06:57:37;0.20;;;0.20;;
16466;SDS011;8344;47.560;9.710;2022-08-14T07:00:05;0.20;;;0.20;;
16466;SDS011;8344;47.560;9.710;2022-08-14T07:02:30;0.10;;;0.10;;
16466;SDS011;8344;47.560;9.710;2022-08-14T07:05:14;0.10;;;0.10;;
16466;SDS011;8344;47.560;9.710;2022-08-14T07:07:58;0.20;;;0.20;;
16466;SDS011;8344;47.560;9.710;2022-08-14T07:10:24;0.10;;;0.10;;
16466;SDS011;8344;47.560;9.710;2022-08-14T07:12:49;0.30;;;0.30;;
16466;SDS011;8344;47.560;9.710;2022-08-14T07:15:14;0.30;;;0.30;;
16466;SDS011;8344;47.560;9.710;2022-08-14T07:17:43;0.28;;;0.28;;
16466;SDS011;8344;47.560;9.710;2022-08-14T07:20:09;0.20;;;0.20;;
16466;SDS011;8344;47.560;9.710;2022-08-14T07:22:34;0.10;;;0.10;;
16466;SDS011;8344;47.560;9.710;2022-08-14T07:24:59;0.30;;;0.30;;
16466;SDS011;8344;47.560;9.710;2022-08-14T07:27:25;0.30;;;0.30;;
16466;SDS011;8344;47.560;9.710;2022-08-14T07:29:50;0.30;;;0.30;;
16466;SDS011;8344;47.560;9.710;2022-08-14T07:32:15;0.20;;;0.20;;
16466;SDS011;8344;47.560;9.710;2022-08-14T07:34:40;0.20;;;0.20;;
16466;SDS011;8344;47.560;9.710;2022-08-14T07:37:05;0.20;;;0.20;;
16466;SDS011;8344;47.560;9.710;2022-08-14T07:39:30;0.10;;;0.10;;
16466;SDS011;8344;47.560;9.710;2022-08-14T07:41:56;0.25;;;0.25;;
16466;SDS011;8344;47.560;9.710;2022-08-14T07:44:22;0.30;;;0.30;;
16466;SDS011;8344;47.560;9.710;2022-08-14T07:46:47;0.10;;;0.10;;
16466;SDS011;8344;47.560;9.710;2022-08-14T07:49:13;0.30;;;0.30;;
16466;SDS011;8344;47.560;9.710;2022-08-14T07:51:38;0.20;;;0.20;;
16466;SDS011;8344;47.560;9.710;2022-08-14T07:54:04;0.20;;;0.20;;
16466;SDS011;8344;47.560;9.710;2022-08-14T07:56:30;0.20;;;0.20;;
16466;SDS011;8344;47.560;9.710;2022-08-14T07:58:55;0.17;;;0.17;;
16466;SDS011;8344;47.560;9.710;2022-08-14T08:01:21;0.20;;;0.20;;
16466;SDS011;8344;47.560;9.710;2022-08-14T08:03:46;0.13;;;0.13;;
16466;SDS011;8344;47.560;9.710;2022-08-14T08:06:13;0.20;;;0.20;;
16466;SDS011;8344;47.560;9.710;2022-08-14T08:08:40;0.20;;;0.20;;
16466;SDS011;8344;47.560;9.710;2022-08-14T08:11:06;0.10;;;0.10;;
16466;SDS011;8344;47.560;9.710;2022-08-14T08:13:32;0.20;;;0.20;;
16466;SDS011;8344;47.560;9.710;2022-08-14T08:15:58;0.30;;;0.30;;
16466;SDS011;8344;47.560;9.710;2022-08-14T08:18:24;0.20;;;0.20;;
16466;SDS011;8344;47.560;9.710;2022-08-14T08:20:51;0.20;;;0.20;;
16466;SDS011;8344;47.560;9.710;2022-08-14T08:23:17;0.25;;;0.25;;
16466;SDS011;8344;47.560;9.710;2022-08-14T08:25:44;0.20;;;0.20;;
16466;SDS011;8344;47.560;9.710;2022-08-14T08:28:11;0.20;;;0.20;;
16466;SDS011;8344;47.560;9.710;2022-08-14T08:30:37;0.20;;;0.20;;
16466;SDS011;8344;47.560;9.710;2022-08-14T08:33:03;0.20;;;0.20;;
16466;SDS011;8344;47.560;9.710;2022-08-14T08:35:31;0.22;;;0.22;;
16466;SDS011;8344;47.560;9.710;2022-08-14T08:38:09;0.20;;;0.20;;
16466;SDS011;8344;47.560;9.710;2022-08-14T08:40:39;0.20;;;0.20;;
16466;SDS011;8344;47.560;9.710;2022-08-14T08:43:05;0.20;;;0.20;;
16466;SDS011;8344;47.560;9.710;2022-08-14T08:45:31;0.10;;;0.10;;
16466;SDS011;8344;47.560;9.710;2022-08-14T08:47:57;0.20;;;0.20;;
16466;SDS011;8344;47.560;9.710;2022-08-14T08:50:26;0.20;;;0.20;;
16466;SDS011;8344;47.560;9.710;2022-08-14T08:52:54;0.20;;;0.20;;
16466;SDS011;8344;47.560;9.710;2022-08-14T08:55:26;0.20;;;0.20;;
16466;SDS011;8344;47.560;9.710;2022-08-14T08:57:52;0.20;;;0.20;;
16466;SDS011;8344;47.560;9.710;2022-08-14T09:00:18;0.20;;;0.20;;
16466;SDS011;8344;47.560;9.710;2022-08-14T09:02:53;0.20;;;0.20;;
16466;SDS011;8344;47.560;9.710;2022-08-14T09:05:19;0.10;;;0.10;;
16466;SDS011;8344;47.560;9.710;2022-08-14T09:07:44;0.10;;;0.10;;
16466;SDS011;8344;47.560;9.710;2022-08-14T09:10:09;0.20;;;0.20;;
16466;SDS011;8344;47.560;9.710;2022-08-14T09:12:35;0.20;;;0.20;;
16466;SDS011;8344;47.560;9.710;2022-08-14T09:15:01;0.20;;;0.20;;
16466;SDS011;8344;47.560;9.710;2022-08-14T09:17:26;0.20;;;0.20;;
16466;SDS011;8344;47.560;9.710;2022-08-14T09:19:52;0.13;;;0.13;;
16466;SDS011;8344;47.560;9.710;2022-08-14T09:22:17;0.25;;;0.25;;
16466;SDS011;8344;47.560;9.710;2022-08-14T09:24:42;0.20;;;0.20;;
16466;SDS011;8344;47.560;9.710;2022-08-14T09:27:08;0.20;;;0.20;;
16466;SDS011;8344;47.560;9.710;2022-08-14T09:29:33;0.20;;;0.20;;
16466;SDS011;8344;47.560;9.710;2022-08-14T09:31:59;0.17;;;0.17;;
16466;SDS011;8344;47.560;9.710;2022-08-14T09:34:35;0.20;;;0.20;;
16466;SDS011;8344;47.560;9.710;2022-08-14T09:47:03;0.10;;;0.10;;
16466;SDS011;8344;47.560;9.710;2022-08-14T09:49:32;0.20;;;0.20;;
16466;SDS011;8344;47.560;9.710;2022-08-14T09:52:04;0.20;;;0.20;;
16466;SDS011;8344;47.560;9.710;2022-08-14T09:54:41;0.10;;;0.10;;
16466;SDS011;8344;47.560;9.710;2022-08-14T09:57:07;0.20;;;0.20;;
16466;SDS011;8344;47.560;9.710;2022-08-14T09:59:41;0.10;;;0.10;;
16466;SDS011;8344;47.560;9.710;2022-08-14T10:02:20;0.20;;;0.20;;
16466;SDS011;8344;47.560;9.710;2022-08-14T10:04:45;0.20;;;0.20;;
16466;SDS011;8344;47.560;9.710;2022-08-14T10:07:11;0.20;;;0.20;;
16466;SDS011;8344;47.560;9.710;2022-08-14T10:09:49;0.10;;;0.10;;
16466;SDS011;8344;47.560;9.710;2022-08-14T10:12:14;0.20;;;0.20;;
16466;SDS011;8344;47.560;9.710;2022-08-14T10:14:39;0.13;;;0.13;;
16466;SDS011;8344;47.560;9.710;2022-08-14T10:17:05;0.10;;;0.10;;
16466;SDS011;8344;47.560;9.710;2022-08-14T10:19:31;0.13;;;0.13;;
16466;SDS011;8344;47.560;9.710;2022-08-14T10:22:14;0.13;;;0.13;;
16466;SDS011;8344;47.560;9.710;2022-08-14T10:24:40;0.10;;;0.10;;
16466;SDS011;8344;47.560;9.710;2022-08-14T10:27:13;0.10;;;0.10;;
16466;SDS011;8344;47.560;9.710;2022-08-14T10:29:42;0.15;;;0.15;;
16466;SDS011;8344;47.560;9.710;2022-08-14T10:32:07;0.20;;;0.20;;
16466;SDS011;8344;47.560;9.710;2022-08-14T10:34:38;0.10;;;0.10;;
16466;SDS011;8344;47.560;9.710;2022-08-14T10:39:29;0.20;;;0.20;;
16466;SDS011;8344;47.560;9.710;2022-08-14T10:42:01;0.10;;;0.10;;
16466;SDS011;8344;47.560;9.710;2022-08-14T10:44:42;0.17;;;0.17;;
16466;SDS011;8344;47.560;9.710;2022-08-14T10:47:10;0.10;;;0.10;;
16466;SDS011;8344;47.560;9.710;2022-08-14T10:49:36;0.10;;;0.10;;
16466;SDS011;8344;47.560;9.710;2022-08-14T10:52:06;0.10;;;0.10;;
16466;SDS011;8344;47.560;9.710;2022-08-14T10:54:34;0.20;;;0.20;;
16466;SDS011;8344;47.560;9.710;2022-08-14T10:57:10;0.10;;;0.10;;
16466;SDS011;8344;47.560;9.710;2022-08-14T11:02:19;0.10;;;0.10;;
16466;SDS011;8344;47.560;9.710;2022-08-14T11:07:29;0.10;;;0.10;;
16466;SDS011;8344;47.560;9.710;2022-08-14T11:09:55;0.10;;;0.10;;
16466;SDS011;8344;47.560;9.710;2022-08-14T11:12:21;0.28;;;0.28;;
16466;SDS011;8344;47.560;9.710;2022-08-14T11:14:53;0.20;;;0.20;;
16466;SDS011;8344;47.560;9.710;2022-08-14T11:17:19;0.10;;;0.10;;
16466;SDS011;8344;47.560;9.710;2022-08-14T11:19:44;0.10;;;0.10;;
16466;SDS011;8344;47.560;9.710;2022-08-14T11:22:09;0.20;;;0.20;;
16466;SDS011;8344;47.560;9.710;2022-08-14T11:24:35;0.17;;;0.17;;
16466;SDS011;8344;47.560;9.710;2022-08-14T11:27:02;0.20;;;0.20;;
16466;SDS011;8344;47.560;9.710;2022-08-14T11:29:29;0.20;;;0.20;;
16466;SDS011;8344;47.560;9.710;2022-08-14T11:31:54;0.10;;;0.10;;
16466;SDS011;8344;47.560;9.710;2022-08-14T11:34:21;0.10;;;0.10;;
16466;SDS011;8344;47.560;9.710;2022-08-14T11:36:46;0.20;;;0.20;;
16466;SDS011;8344;47.560;9.710;2022-08-14T11:39:18;0.20;;;0.20;;
16466;SDS011;8344;47.560;9.710;2022-08-14T11:41:44;0.20;;;0.20;;
16466;SDS011;8344;47.560;9.710;2022-08-14T11:44:10;0.17;;;0.17;;
16466;SDS011;8344;47.560;9.710;2022-08-14T11:46:35;0.20;;;0.20;;
16466;SDS011;8344;47.560;9.710;2022-08-14T11:49:00;0.10;;;0.10;;
16466;SDS011;8344;47.560;9.710;2022-08-14T11:51:26;0.10;;;0.10;;
16466;SDS011;8344;47.560;9.710;2022-08-14T11:53:54;0.10;;;0.10;;
16466;SDS011;8344;47.560;9.710;2022-08-14T11:56:19;0.10;;;0.10;;
16466;SDS011;8344;47.560;9.710;2022-08-14T11:58:48;0.10;;;0.10;;
16466;SDS011;8344;47.560;9.710;2022-08-14T12:01:14;0.10;;;0.10;;
16466;SDS011;8344;47.560;9.710;2022-08-14T12:03:43;0.10;;;0.10;;
16466;SDS011;8344;47.560;9.710;2022-08-14T12:06:10;0.20;;;0.20;;
16466;SDS011;8344;47.560;9.710;2022-08-14T12:08:36;0.10;;;0.10;;
16466;SDS011;8344;47.560;9.710;2022-08-14T12:11:03;0.10;;;0.10;;
16466;SDS011;8344;47.560;9.710;2022-08-14T12:13:28;0.20;;;0.20;;
16466;SDS011;8344;47.560;9.710;2022-08-14T12:15:58;0.30;;;0.30;;
16466;SDS011;8344;47.560;9.710;2022-08-14T12:18:31;0.20;;;0.20;;
16466;SDS011;8344;47.560;9.710;2022-08-14T12:20:58;0.10;;;0.10;;
16466;SDS011;8344;47.560;9.710;2022-08-14T12:23:34;0.17;;;0.17;;
16466;SDS011;8344;47.560;9.710;2022-08-14T12:26:06;0.20;;;0.20;;
16466;SDS011;8344;47.560;9.710;2022-08-14T12:28:31;0.10;;;0.10;;
16466;SDS011;8344;47.560;9.710;2022-08-14T12:30:57;0.10;;;0.10;;
16466;SDS011;8344;47.560;9.710;2022-08-14T12:33:29;0.10;;;0.10;;
16466;SDS011;8344;47.560;9.710;2022-08-14T12:35:57;0.22;;;0.22;;
16466;SDS011;8344;47.560;9.710;2022-08-14T12:38:30;0.20;;;0.20;;
16466;SDS011;8344;47.560;9.710;2022-08-14T12:40:56;0.20;;;0.20;;
16466;SDS011;8344;47.560;9.710;2022-08-14T12:43:21;0.17;;;0.17;;
16466;SDS011;8344;47.560;9.710;2022-08-14T12:45:50;0.10;;;0.10;;
16466;SDS011;8344;47.560;9.710;2022-08-14T12:48:19;0.10;;;0.10;;
16466;SDS011;8344;47.560;9.710;2022-08-14T12:50:44;0.10;;;0.10;;
16466;SDS011;8344;47.560;9.710;2022-08-14T12:53:10;0.17;;;0.17;;
16466;SDS011;8344;47.560;9.710;2022-08-14T12:55:36;0.10;;;0.10;;
16466;SDS011;8344;47.560;9.710;2022-08-14T12:58:03;0.10;;;0.10;;
16466;SDS011;8344;47.560;9.710;2022-08-14T13:00:29;0.10;;;0.10;;
16466;SDS011;8344;47.560;9.710;2022-08-14T13:02:55;0.20;;;0.20;;
16466;SDS011;8344;47.560;9.710;2022-08-14T13:05:24;0.13;;;0.13;;
16466;SDS011;8344;47.560;9.710;2022-08-14T13:07:50;0.20;;;0.20;;
16466;SDS011;8344;47.560;9.710;2022-08-14T13:10:16;0.10;;;0.10;;
16466;SDS011;8344;47.560;9.710;2022-08-14T13:12:42;0.10;;;0.10;;
16466;SDS011;8344;47.560;9.710;2022-08-14T13:15:09;0.10;;;0.10;;
16466;SDS011;8344;47.560;9.710;2022-08-14T13:17:40;0.10;;;0.10;;
16466;SDS011;8344;47.560;9.710;2022-08-14T13:20:06;0.10;;;0.10;;
16466;SDS011;8344;47.560;9.710;2022-08-14T13:22:32;0.10;;;0.10;;
16466;SDS011;8344;47.560;9.710;2022-08-14T13:24:58;0.10;;;0.10;;
16466;SDS011;8344;47.560;9.710;2022-08-14T13:27:23;0.10;;;0.10;;
16466;SDS011;8344;47.560;9.710;2022-08-14T13:29:52;0.10;;;0.10;;
16466;SDS011;8344;47.560;9.710;2022-08-14T13:32:20;0.20;;;0.20;;
16466;SDS011;8344;47.560;9.710;2022-08-14T13:34:48;0.10;;;0.10;;
16466;SDS011;8344;47.560;9.710;2022-08-14T13:37:14;0.10;;;0.10;;
16466;SDS011;8344;47.560;9.710;2022-08-14T13:39:40;0.10;;;0.10;;
16466;SDS011;8344;47.560;9.710;2022-08-14T13:42:09;0.10;;;0.10;;
16466;SDS011;8344;47.560;9.710;2022-08-14T13:44:38;0.10;;;0.10;;
16466;SDS011;8344;47.560;9.710;2022-08-14T13:47:04;0.10;;;0.10;;
16466;SDS011;8344;47.560;9.710;2022-08-14T13:49:30;0.20;;;0.20;;
16466;SDS011;8344;47.560;9.710;2022-08-14T13:51:56;0.10;;;0.10;;
16466;SDS011;8344;47.560;9.710;2022-08-14T13:54:22;0.00;;;0.00;;
16466;SDS011;8344;47.560;9.710;2022-08-14T13:56:49;0.10;;;0.10;;
16466;SDS011;8344;47.560;9.710;2022-08-14T13:59:15;0.08;;;0.08;;
16466;SDS011;8344;47.560;9.710;2022-08-14T14:01:40;0.10;;;0.10;;
16466;SDS011;8344;47.560;9.710;2022-08-14T14:04:08;0.03;;;0.03;;
16466;SDS011;8344;47.560;9.710;2022-08-14T14:06:37;0.00;;;0.00;;
16466;SDS011;8344;47.560;9.710;2022-08-14T14:09:02;0.10;;;0.10;;
16466;SDS011;8344;47.560;9.710;2022-08-14T14:11:29;0.10;;;0.10;;
16466;SDS011;8344;47.560;9.710;2022-08-14T14:13:55;0.10;;;0.10;;
16466;SDS011;8344;47.560;9.710;2022-08-14T14:16:21;0.10;;;0.10;;
16466;SDS011;8344;47.560;9.710;2022-08-14T14:18:47;0.10;;;0.10;;
16466;SDS011;8344;47.560;9.710;2022-08-14T14:21:15;0.10;;;0.10;;
16466;SDS011;8344;47.560;9.710;2022-08-14T14:23:41;0.10;;;0.10;;
16466;SDS011;8344;47.560;9.710;2022-08-14T14:26:07;0.05;;;0.05;;
16466;SDS011;8344;47.560;9.710;2022-08-14T14:28:33;0.10;;;0.10;;
16466;SDS011;8344;47.560;9.710;2022-08-14T14:31:00;0.17;;;0.17;;
16466;SDS011;8344;47.560;9.710;2022-08-14T14:33:26;0.10;;;0.10;;
16466;SDS011;8344;47.560;9.710;2022-08-14T14:35:51;0.10;;;0.10;;
16466;SDS011;8344;47.560;9.710;2022-08-14T14:38:16;0.10;;;0.10;;
16466;SDS011;8344;47.560;9.710;2022-08-14T14:40:45;0.10;;;0.10;;
16466;SDS011;8344;47.560;9.710;2022-08-14T14:43:11;0.10;;;0.10;;
16466;SDS011;8344;47.560;9.710;2022-08-14T14:45:36;0.10;;;0.10;;
16466;SDS011;8344;47.560;9.710;2022-08-14T14:48:03;0.10;;;0.10;;
16466;SDS011;8344;47.560;9.710;2022-08-14T14:50:31;0.10;;;0.10;;
16466;SDS011;8344;47.560;9.710;2022-08-14T14:52:56;0.10;;;0.10;;
16466;SDS011;8344;47.560;9.710;2022-08-14T14:55:22;0.10;;;0.10;;
16466;SDS011;8344;47.560;9.710;2022-08-14T14:57:47;0.20;;;0.20;;
16466;SDS011;8344;47.560;9.710;2022-08-14T15:00:14;0.10;;;0.10;;
16466;SDS011;8344;47.560;9.710;2022-08-14T15:02:41;0.10;;;0.10;;
16466;SDS011;8344;47.560;9.710;2022-08-14T15:05:06;0.13;;;0.13;;
16466;SDS011;8344;47.560;9.710;2022-08-14T15:07:33;0.20;;;0.20;;
16466;SDS011;8344;47.560;9.710;2022-08-14T15:09:58;0.10;;;0.10;;
16466;SDS011;8344;47.560;9.710;2022-08-14T15:12:24;0.20;;;0.20;;
16466;SDS011;8344;47.560;9.710;2022-08-14T15:14:49;0.10;;;0.10;;
16466;SDS011;8344;47.560;9.710;2022-08-14T15:17:14;0.20;;;0.20;;
16466;SDS011;8344;47.560;9.710;2022-08-14T15:19:40;0.10;;;0.10;;